Time;durP1;ratioP1;P1;durP2;ratioP2;P2;SDS_P1;SDS_P2;PMS_P1;PMS_P2;Temp;Humidity;BMP_temperature;BMP_pressure;BME280_temperature;BME280_humidity;BME280_pressure;Samples;Min_cycle;Max_cycle;Signal;HPM_P1;HPM_P2
2022/11/21 00:00:18;;;;;;;5.33;1.63;;;7.40;20.30;;;;;;5009038;28;20210;-70
2022/11/21 00:02:43;;;;;;;1.77;1.20;;;7.50;21.60;;;;;;5009258;28;20453;-70
2022/11/21 00:05:09;;;;;;;1.50;1.33;;;7.30;23.60;;;;;;5008968;28;20424;-70
2022/11/21 00:07:35;;;;;;;2.13;1.30;;;7.30;25.80;;;;;;5009919;28;20170;-70
2022/11/21 00:10:00;;;;;;;9.73;1.80;;;7.30;27.70;;;;;;5009699;28;20198;-71
2022/11/21 00:12:26;;;;;;;3.37;1.50;;;7.30;30.70;;;;;;5009402;28;20167;-71
2022/11/21 00:14:52;;;;;;;3.77;1.63;;;7.30;34.90;;;;;;5009519;28;20174;-70
2022/11/21 00:17:17;;;;;;;3.10;1.57;;;7.30;34.40;;;;;;5008484;28;20228;-71
2022/11/21 00:19:43;;;;;;;3.73;1.90;;;7.20;36.50;;;;;;5009172;28;20228;-71
2022/11/21 00:22:08;;;;;;;2.97;1.80;;;7.20;36.60;;;;;;5009611;28;20218;-71
2022/11/21 00:24:34;;;;;;;3.53;1.60;;;7.20;36.50;;;;;;5009660;28;20209;-71
2022/11/21 00:26:59;;;;;;;2.07;1.63;;;7.20;36.40;;;;;;5013210;28;20648;-71
2022/11/21 00:29:25;;;;;;;3.50;1.90;;;7.20;36.50;;;;;;5012831;28;20657;-71
2022/11/21 00:31:50;;;;;;;5.03;1.80;;;7.20;36.60;;;;;;5012925;28;20182;-70
2022/11/21 00:34:16;;;;;;;2.10;1.53;;;7.60;36.80;;;;;;5011218;28;20186;-70
2022/11/21 00:36:41;;;;;;;5.80;1.73;;;7.20;36.60;;;;;;5013139;28;20185;-71
2022/11/21 00:39:07;;;;;;;5.10;2.03;;;7.30;36.50;;;;;;5012493;28;20198;-70
2022/11/21 00:41:33;;;;;;;7.47;1.80;;;7.20;36.60;;;;;;5012118;28;20199;-70
2022/11/21 00:43:58;;;;;;;4.90;2.23;;;7.20;36.50;;;;;;5011925;28;20601;-71
2022/11/21 00:46:24;;;;;;;5.40;1.80;;;7.30;36.60;;;;;;5011745;28;20198;-71
2022/11/21 00:48:49;;;;;;;2.73;1.70;;;7.30;34.60;;;;;;5012397;28;20225;-71
2022/11/21 00:51:15;;;;;;;4.83;1.73;;;7.30;36.70;;;;;;5010631;28;20229;-70
2022/11/21 00:53:40;;;;;;;4.17;1.70;;;7.30;32.20;;;;;;5012446;28;20216;-71
2022/11/21 00:56:06;;;;;;;4.37;2.07;;;7.30;33.90;;;;;;5010204;28;20210;-69
2022/11/21 00:58:31;;;;;;;5.33;1.67;;;7.30;33.30;;;;;;5010323;28;20183;-70
2022/11/21 01:01:13;;;;;;;5.90;1.70;;;7.30;31.30;;;;;;5008130;28;20573;-71
2022/11/21 01:03:39;;;;;;;3.50;2.00;;;7.30;29.20;;;;;;5008940;28;20193;-72
2022/11/21 01:06:08;;;;;;;5.47;1.97;;;7.30;27.50;;;;;;5012126;28;20499;-70
2022/11/21 01:08:35;;;;;;;3.03;1.67;;;7.30;31.40;;;;;;5000346;28;20618;-71
2022/11/21 01:11:07;;;;;;;8.20;1.70;;;7.20;28.00;;;;;;5007978;28;20547;-71
2022/11/21 01:13:33;;;;;;;3.33;1.70;;;7.30;30.80;;;;;;5012264;28;20478;-71
2022/11/21 01:16:13;;;;;;;4.70;1.80;;;7.30;30.40;;;;;;5012268;28;20418;-70
2022/11/21 01:18:39;;;;;;;4.07;1.83;;;7.20;29.40;;;;;;5011516;28;20417;-70
2022/11/21 01:21:11;;;;;;;8.67;2.43;;;7.20;31.20;;;;;;5011662;28;21002;-70
2022/11/21 01:23:37;;;;;;;5.43;1.90;;;7.30;31.50;;;;;;5011124;28;20211;-69
2022/11/21 01:26:04;;;;;;;3.10;1.70;;;7.20;29.10;;;;;;5012531;28;20406;-70
2022/11/21 01:28:30;;;;;;;6.20;1.87;;;7.20;27.20;;;;;;5011471;28;20273;-70
2022/11/21 01:31:02;;;;;;;4.70;2.33;;;7.30;28.10;;;;;;5011674;28;20429;-71
2022/11/21 01:33:28;;;;;;;2.83;1.83;;;7.30;26.00;;;;;;5010560;28;20516;-70
2022/11/21 01:35:53;;;;;;;3.13;1.60;;;7.30;28.00;;;;;;5010309;28;20504;-71
2022/11/21 01:38:19;;;;;;;1.50;1.40;;;7.30;25.40;;;;;;5010856;28;20233;-71
2022/11/21 01:40:44;;;;;;;3.20;1.40;;;7.40;22.90;;;;;;5010987;28;20205;-70
2022/11/21 01:43:14;;;;;;;6.73;1.80;;;7.40;23.90;;;;;;5008717;28;20236;-70
2022/11/21 01:45:53;;;;;;;3.00;1.70;;;7.40;23.70;;;;;;5010998;28;20201;-71
2022/11/21 01:48:21;;;;;;;3.43;1.93;;;7.50;23.90;;;;;;5011024;28;20441;-70
2022/11/21 01:50:47;;;;;;;3.10;1.63;;;7.60;25.10;;;;;;5009684;28;20453;-71
2022/11/21 01:53:12;;;;;;;5.27;1.60;;;7.60;26.50;;;;;;5008098;28;20491;-70
2022/11/21 01:55:38;;;;;;;3.87;1.50;;;7.60;24.70;;;;;;5009686;28;20590;-72
2022/11/21 01:58:04;;;;;;;4.17;1.70;;;7.50;18.80;;;;;;5009147;28;20178;-71
2022/11/21 02:00:37;;;;;;;3.13;1.70;;;7.50;16.90;;;;;;5009423;28;20271;-71
2022/11/21 02:03:07;;;;;;;4.80;1.67;;;7.50;14.60;;;;;;5009349;28;20433;-71
2022/11/21 02:05:36;;;;;;;6.50;1.63;;;7.60;18.60;;;;;;5010946;28;20420;-72
2022/11/21 02:08:10;;;;;;;2.87;1.40;;;7.60;18.20;;;;;;5009378;28;20450;-71
2022/11/21 02:10:38;;;;;;;2.60;1.40;;;7.60;18.60;;;;;;5009241;28;20956;-70
2022/11/21 02:13:04;;;;;;;3.40;1.40;;;7.60;18.20;;;;;;5009827;28;20444;-70
2022/11/21 02:15:30;;;;;;;3.23;1.30;;;7.50;17.10;;;;;;5009539;28;20433;-71
2022/11/21 02:17:55;;;;;;;4.23;1.57;;;7.50;19.10;;;;;;5009707;28;20429;-71
2022/11/21 02:20:26;;;;;;;2.13;1.30;;;7.50;19.10;;;;;;5010111;28;20581;-70
2022/11/21 02:23:29;;;;;;;2.50;1.33;;;7.50;20.00;;;;;;5004608;28;20210;-71
2022/11/21 02:25:54;;;;;;;3.43;1.40;;;7.50;21.90;;;;;;5009036;28;20437;-70
2022/11/21 02:28:23;;;;;;;3.63;1.43;;;7.50;24.30;;;;;;5010821;28;20505;-71
2022/11/21 02:30:49;;;;;;;5.23;1.63;;;7.50;26.00;;;;;;5009473;28;20324;-71
2022/11/21 02:33:15;;;;;;;4.70;1.70;;;7.50;28.40;;;;;;5007369;28;20523;-71
2022/11/21 02:35:41;;;;;;;3.73;1.73;;;7.50;29.60;;;;;;5008952;28;20433;-71
2022/11/21 02:38:23;;;;;;;4.27;1.60;;;7.50;33.80;;;;;;5008243;28;20186;-71
2022/11/21 02:40:57;;;;;;;3.77;1.63;;;7.40;35.20;;;;;;5009966;28;20657;-71
2022/11/21 02:43:27;;;;;;;4.23;1.77;;;7.50;37.00;;;;;;5005044;28;20429;-71
2022/11/21 02:45:52;;;;;;;3.83;1.50;;;7.60;36.90;;;;;;5009396;28;20434;-70
2022/11/21 02:48:18;;;;;;;2.07;1.40;;;7.40;36.80;;;;;;5009757;28;20463;-71
2022/11/21 02:50:45;;;;;;;4.73;1.50;;;7.30;36.60;;;;;;5008272;28;20271;-71
2022/11/21 02:53:16;;;;;;;2.37;1.47;;;7.30;36.70;;;;;;5008471;28;20671;-71
2022/11/21 02:55:42;;;;;;;2.40;1.50;;;7.30;36.70;;;;;;5009457;28;20496;-70
2022/11/21 02:58:08;;;;;;;2.63;1.43;;;7.30;36.70;;;;;;5009629;28;20492;-70
2022/11/21 03:00:35;;;;;;;2.27;1.50;;;7.40;36.70;;;;;;5008487;28;20946;-70
2022/11/21 03:03:01;;;;;;;3.67;1.87;;;7.40;36.80;;;;;;5001177;28;20278;-71
2022/11/21 03:05:27;;;;;;;3.77;1.80;;;7.40;36.80;;;;;;5007994;28;20532;-71
2022/11/21 03:07:52;;;;;;;2.73;1.50;;;7.50;36.90;;;;;;5007811;28;20181;-70
2022/11/21 03:10:19;;;;;;;2.80;1.60;;;7.50;36.90;;;;;;5008611;28;20194;-70
2022/11/21 03:12:44;;;;;;;4.30;1.60;;;7.50;36.90;;;;;;5008656;28;20261;-72
2022/11/21 03:15:13;;;;;;;4.60;1.77;;;7.50;37.00;;;;;;5019844;28;20567;-71
2022/11/21 03:17:39;;;;;;;3.73;1.57;;;7.50;37.00;;;;;;5008899;28;20657;-70
2022/11/21 03:20:05;;;;;;;3.90;1.60;;;7.50;36.90;;;;;;5005243;28;20552;-71
2022/11/21 03:22:32;;;;;;;5.07;1.87;;;7.60;36.90;;;;;;5008513;28;20986;-71
2022/11/21 03:24:57;;;;;;;1.87;1.40;;;7.60;36.90;;;;;;5008355;28;20424;-71
2022/11/21 03:27:23;;;;;;;1.33;1.13;;;7.50;36.80;;;;;;5008554;28;20648;-70
2022/11/21 03:29:48;;;;;;;2.33;1.20;;;7.90;37.10;;;;;;5008524;28;20197;-71
2022/11/21 03:32:14;;;;;;;1.83;1.30;;;7.50;28.80;;;;;;5008584;28;20247;-70
2022/11/21 03:34:39;;;;;;;3.43;1.40;;;7.50;28.50;;;;;;5006610;28;20552;-71
2022/11/21 03:37:05;;;;;;;2.87;1.40;;;7.40;30.20;;;;;;5006974;28;20665;-71
2022/11/21 03:39:31;;;;;;;2.13;1.13;;;7.40;31.80;;;;;;5008402;28;20606;-71
2022/11/21 03:41:56;;;;;;;2.07;1.30;;;7.40;31.20;;;;;;5007402;28;20225;-72
2022/11/21 03:44:22;;;;;;;1.60;1.40;;;7.40;29.70;;;;;;5009216;28;20182;-71
2022/11/21 03:46:48;;;;;;;1.47;1.00;;;7.40;27.30;;;;;;5007210;28;20527;-71
2022/11/21 03:49:15;;;;;;;4.27;1.60;;;7.40;27.10;;;;;;5008262;28;21959;-70
2022/11/21 03:51:41;;;;;;;3.63;2.23;;;7.40;26.20;;;;;;5008603;28;20190;-71
2022/11/21 03:54:07;;;;;;;1.87;1.10;;;7.40;36.70;;;;;;5008143;28;20437;-71
2022/11/21 03:56:33;;;;;;;2.30;1.17;;;7.30;36.60;;;;;;5008747;28;20233;-70
2022/11/21 03:58:58;;;;;;;5.57;1.20;;;7.20;36.60;;;;;;5010146;28;20468;-70
2022/11/21 04:01:24;;;;;;;1.93;1.30;;;7.10;36.50;;;;;;5011725;28;20202;-70
2022/11/21 04:03:50;;;;;;;4.10;1.30;;;7.10;36.50;;;;;;5011995;28;20183;-70
2022/11/21 04:06:17;;;;;;;1.40;1.10;;;7.10;36.70;;;;;;5012751;28;20181;-70
2022/11/21 04:08:43;;;;;;;2.10;1.10;;;7.10;34.40;;;;;;5012856;28;20182;-70
2022/11/21 04:11:09;;;;;;;2.77;1.03;;;7.10;36.70;;;;;;5011243;28;20453;-70
2022/11/21 04:13:34;;;;;;;1.57;1.10;;;7.00;36.60;;;;;;5012695;28;20187;-70
2022/11/21 04:16:00;;;;;;;4.60;1.60;;;7.10;36.70;;;;;;5009765;28;20191;-70
2022/11/21 04:18:26;;;;;;;2.80;1.40;;;7.00;39.20;;;;;;5012298;28;20198;-71
2022/11/21 04:20:59;;;;;;;3.70;2.20;;;7.10;36.50;;;;;;5011456;28;20288;-71
2022/11/21 04:23:25;;;;;;;2.30;1.30;;;7.20;36.60;;;;;;5005153;28;20475;-69
2022/11/21 04:25:51;;;;;;;1.57;1.20;;;7.20;36.70;;;;;;5010441;28;20433;-70
2022/11/21 04:28:16;;;;;;;2.50;1.40;;;7.20;36.60;;;;;;5011812;28;20516;-70
2022/11/21 04:30:42;;;;;;;1.63;1.10;;;7.20;36.60;;;;;;5010438;28;20213;-70
2022/11/21 04:33:07;;;;;;;3.23;1.40;;;7.20;36.70;;;;;;5010107;28;20193;-71
2022/11/21 04:35:33;;;;;;;2.40;1.47;;;7.20;36.60;;;;;;5010836;28;20186;-71
2022/11/21 04:37:59;;;;;;;6.00;1.63;;;7.20;36.60;;;;;;5010661;28;20244;-70
2022/11/21 04:40:24;;;;;;;2.53;1.40;;;7.20;36.60;;;;;;5011382;28;20252;-70
2022/11/21 04:42:50;;;;;;;4.10;1.73;;;7.20;36.60;;;;;;5010864;28;20265;-71
2022/11/21 04:45:16;;;;;;;1.73;1.37;;;7.30;36.70;;;;;;5011613;28;20190;-70
2022/11/21 04:47:44;;;;;;;2.10;1.40;;;7.40;36.70;;;;;;5010852;28;20248;-70
2022/11/21 04:50:12;;;;;;;2.33;1.40;;;7.30;36.70;;;;;;5010100;28;21011;-70
2022/11/21 04:52:37;;;;;;;4.07;1.70;;;7.30;36.70;;;;;;5010085;28;20469;-70
2022/11/21 04:55:04;;;;;;;2.63;1.33;;;7.30;36.50;;;;;;5011363;28;20485;-70
2022/11/21 04:57:31;;;;;;;2.30;1.50;;;7.30;36.60;;;;;;5011202;28;20241;-71
2022/11/21 04:59:56;;;;;;;2.40;1.60;;;7.30;36.70;;;;;;5009801;28;20467;-70
2022/11/21 05:02:22;;;;;;;3.60;1.43;;;7.40;36.70;;;;;;5004786;28;20457;-70
2022/11/21 05:04:48;;;;;;;2.80;1.50;;;7.40;36.80;;;;;;5009911;28;20171;-70
2022/11/21 05:07:14;;;;;;;2.60;1.33;;;7.40;36.80;;;;;;5011697;28;20500;-70
2022/11/21 05:09:40;;;;;;;4.70;1.60;;;7.40;36.70;;;;;;5008623;28;20946;-70
2022/11/21 05:14:52;;;;;;;1.93;1.17;;;7.40;29.80;;;;;;5012257;28;20326;-70
2022/11/21 05:17:17;;;;;;;3.93;1.30;;;7.40;27.20;;;;;;5012482;28;20509;-72
2022/11/21 05:19:43;;;;;;;2.37;1.60;;;7.40;26.30;;;;;;5010987;28;20285;-71
2022/11/21 05:22:08;;;;;;;1.60;1.13;;;7.40;25.90;;;;;;5010384;28;20206;-70
2022/11/21 05:24:34;;;;;;;4.33;1.00;;;7.50;26.50;;;;;;5011787;28;20232;-71
2022/11/21 05:26:59;;;;;;;5.17;1.40;;;7.50;24.00;;;;;;5010366;28;20177;-70
2022/11/21 05:29:25;;;;;;;3.00;1.53;;;7.50;23.80;;;;;;5009614;28;20197;-70
2022/11/21 05:31:50;;;;;;;4.27;1.37;;;7.50;22.60;;;;;;5010612;28;20190;-70
2022/11/21 05:34:16;;;;;;;1.60;1.20;;;7.50;25.40;;;;;;5010107;28;20170;-69
2022/11/21 05:36:42;;;;;;;1.87;1.40;;;7.60;26.20;;;;;;5010977;28;20182;-70
2022/11/21 05:39:07;;;;;;;2.07;1.30;;;7.60;22.90;;;;;;5010324;28;20202;-70
2022/11/21 05:41:33;;;;;;;3.77;1.70;;;7.60;21.10;;;;;;5010231;28;20235;-71
2022/11/21 05:43:58;;;;;;;6.57;1.50;;;7.60;23.10;;;;;;5009811;28;20182;-70
2022/11/21 05:46:25;;;;;;;3.60;1.67;;;7.60;21.60;;;;;;5009744;28;20182;-70
2022/11/21 05:48:52;;;;;;;4.33;1.80;;;7.60;20.00;;;;;;5010545;28;20206;-71
2022/11/21 05:51:19;;;;;;;2.70;1.90;;;7.60;21.30;;;;;;5010707;28;20437;-70
2022/11/21 05:53:45;;;;;;;5.20;1.80;;;7.60;23.00;;;;;;5010517;28;20442;-71
2022/11/21 05:56:13;;;;;;;6.20;2.50;;;7.60;21.90;;;;;;5010420;28;20433;-71
2022/11/21 05:58:39;;;;;;;6.67;2.17;;;7.70;21.10;;;;;;5009911;28;20445;-71
2022/11/21 06:01:06;;;;;;;3.60;2.00;;;7.60;21.30;;;;;;5007338;28;20457;-71
2022/11/21 06:03:34;;;;;;;3.27;2.00;;;7.70;23.70;;;;;;5009802;28;20429;-69
2022/11/21 06:06:06;;;;;;;2.90;2.37;;;7.70;23.60;;;;;;5007942;28;20971;-69
2022/11/21 06:08:45;;;;;;;2.27;1.97;;;7.70;20.60;;;;;;5010621;28;20425;-71
2022/11/21 06:11:15;;;;;;;3.80;2.07;;;7.70;21.00;;;;;;5009706;28;20441;-71
2022/11/21 06:13:40;;;;;;;5.40;2.50;;;7.70;22.30;;;;;;5011150;28;20444;-71
2022/11/21 06:16:09;;;;;;;4.10;1.93;;;7.70;22.20;;;;;;5013435;28;20943;-70
2022/11/21 06:18:36;;;;;;;3.90;2.10;;;7.70;22.00;;;;;;5010577;28;20194;-71
2022/11/21 06:21:06;;;;;;;3.83;2.10;;;7.70;20.50;;;;;;5008512;28;21094;-69
2022/11/21 06:23:33;;;;;;;6.27;2.23;;;7.70;22.20;;;;;;5002848;28;20426;-71
2022/11/21 06:26:00;;;;;;;7.00;2.90;;;8.00;21.40;;;;;;5004184;28;21013;-70
2022/11/21 06:28:26;;;;;;;3.20;2.00;;;7.60;21.40;;;;;;5025298;28;20444;-70
2022/11/21 06:30:52;;;;;;;4.77;2.27;;;7.60;22.50;;;;;;5009231;28;20503;-68
2022/11/21 06:33:18;;;;;;;4.83;2.00;;;7.60;19.80;;;;;;5010557;28;20452;-70
2022/11/21 06:35:44;;;;;;;4.97;2.10;;;7.60;19.60;;;;;;5009467;28;20193;-72
2022/11/21 06:38:12;;;;;;;6.73;1.80;;;7.60;22.00;;;;;;5010809;28;21138;-71
2022/11/21 06:40:38;;;;;;;4.23;2.00;;;7.50;16.60;;;;;;5001657;28;20558;-71
2022/11/21 06:43:04;;;;;;;2.00;1.63;;;7.50;18.30;;;;;;5011047;28;20993;-71
2022/11/21 06:45:29;;;;;;;3.93;1.77;;;7.50;12.90;;;;;;5008405;28;20524;-73
2022/11/21 06:47:55;;;;;;;6.53;1.73;;;7.60;10.80;;;;;;5008948;28;20216;-75
2022/11/21 06:50:21;;;;;;;1.70;1.43;;;7.90;37.20;;;;;;5006090;28;20207;-74
2022/11/21 06:52:47;;;;;;;3.77;1.80;;;8.30;1.00;;;;;;5007117;28;20186;-75
2022/11/21 06:55:13;;;;;;;5.40;1.90;;;8.40;1.00;;;;;;5009123;28;20449;-74
2022/11/21 06:57:38;;;;;;;4.03;1.70;;;8.30;1.00;;;;;;5007240;28;20174;-74
2022/11/21 07:00:04;;;;;;;2.70;1.43;;;8.30;1.00;;;;;;5008661;28;20624;-72
2022/11/21 07:02:30;;;;;;;5.20;1.70;;;8.30;1.00;;;;;;5003789;28;20201;-72
2022/11/21 07:04:56;;;;;;;4.30;1.97;;;8.20;1.00;;;;;;5007237;28;20902;-73
2022/11/21 07:07:21;;;;;;;4.60;2.10;;;8.00;1.00;;;;;;5008271;28;20174;-71
2022/11/21 07:09:47;;;;;;;3.20;1.83;;;8.00;1.00;;;;;;5009538;28;20273;-71
2022/11/21 07:14:56;;;;;;;3.27;1.73;;;8.10;1.90;;;;;;5009569;28;20188;-71
2022/11/21 07:17:22;;;;;;;5.30;2.00;;;8.10;1.00;;;;;;5009289;28;20524;-71
2022/11/21 07:19:47;;;;;;;4.17;2.00;;;8.10;1.00;;;;;;5008872;28;20306;-71
2022/11/21 07:22:13;;;;;;;3.30;1.50;;;8.10;1.00;;;;;;5008583;28;20242;-71
2022/11/21 07:24:38;;;;;;;8.23;2.00;;;8.00;1.00;;;;;;5009002;28;20204;-69
2022/11/21 07:27:04;;;;;;;4.83;2.03;;;8.10;1.00;;;;;;5009688;28;20201;-70
2022/11/21 07:29:29;;;;;;;2.80;1.97;;;8.10;1.00;;;;;;5009179;28;20202;-71
2022/11/21 07:31:55;;;;;;;8.20;3.73;;;8.20;1.00;;;;;;5008080;28;20182;-70
2022/11/21 07:34:20;;;;;;;8.83;4.20;;;8.20;1.00;;;;;;5011758;28;20538;-71
2022/11/21 07:36:46;;;;;;;9.87;4.90;;;8.10;1.00;;;;;;5028051;28;20189;-71
2022/11/21 07:39:11;;;;;;;4.17;2.27;;;8.20;1.00;;;;;;5011799;28;20205;-71
2022/11/21 07:41:37;;;;;;;6.30;3.00;;;8.20;1.00;;;;;;5009363;28;20206;-71
2022/11/21 07:44:02;;;;;;;5.50;2.87;;;8.20;1.00;;;;;;5010342;28;20586;-71
2022/11/21 07:46:28;;;;;;;6.80;3.00;;;8.20;2.60;;;;;;5010195;28;20248;-71
2022/11/21 07:48:53;;;;;;;5.43;2.03;;;8.30;1.00;;;;;;5008483;28;20182;-71
2022/11/21 07:51:19;;;;;;;3.00;2.03;;;8.20;2.10;;;;;;5005981;28;21268;-70
2022/11/21 07:53:45;;;;;;;4.73;2.23;;;8.20;1.60;;;;;;5010870;28;20202;-69
2022/11/21 07:56:11;;;;;;;5.57;2.73;;;8.20;1.00;;;;;;5012418;28;20429;-71
2022/11/21 07:58:36;;;;;;;5.13;2.07;;;8.30;1.00;;;;;;5008561;28;20188;-70
2022/11/21 08:01:04;;;;;;;7.73;2.83;;;8.20;1.00;;;;;;5083209;22;20714;-69
2022/11/21 08:03:30;;;;;;;7.07;2.20;;;8.30;1.00;;;;;;5032242;28;20205;-71
2022/11/21 08:05:56;;;;;;;7.60;2.50;;;8.40;1.00;;;;;;5032505;28;20491;-71
2022/11/21 08:08:21;;;;;;;10.10;2.37;;;8.50;1.00;;;;;;5026325;28;20544;-71
2022/11/21 08:10:47;;;;;;;5.50;2.30;;;8.50;1.00;;;;;;5033929;28;20240;-71
2022/11/21 08:13:13;;;;;;;7.53;2.30;;;8.60;1.00;;;;;;5028526;28;20188;-71
2022/11/21 08:15:39;;;;;;;8.53;2.27;;;8.80;1.00;;;;;;5027914;28;20273;-71
2022/11/21 08:18:09;;;;;;;11.13;2.47;;;8.80;1.00;;;;;;5029706;28;20604;-70
2022/11/21 08:20:34;;;;;;;3.77;1.80;;;8.80;1.00;;;;;;5030179;28;20827;-72
2022/11/21 08:23:00;;;;;;;4.07;1.73;;;8.90;1.00;;;;;;5026717;28;20479;-72
2022/11/21 08:25:25;;;;;;;5.43;1.83;;;9.00;1.00;;;;;;5024391;28;20170;-71
2022/11/21 08:27:55;;;;;;;5.00;1.70;;;9.10;1.00;;;;;;5026031;28;20174;-71
2022/11/21 08:30:20;;;;;;;4.13;2.03;;;9.30;1.00;;;;;;5031962;28;20694;-71
2022/11/21 08:32:46;;;;;;;3.30;1.80;;;9.30;1.00;;;;;;5027471;28;20460;-71
2022/11/21 08:35:11;;;;;;;3.17;1.90;;;9.30;1.00;;;;;;5024188;28;20190;-71
2022/11/21 08:37:37;;;;;;;3.43;1.60;;;9.40;1.00;;;;;;5026822;28;20228;-70
2022/11/21 08:40:03;;;;;;;5.00;1.80;;;9.30;1.00;;;;;;5028586;28;20248;-71
2022/11/21 08:42:28;;;;;;;5.20;1.90;;;9.40;1.00;;;;;;5027389;28;20316;-71
2022/11/21 08:44:54;;;;;;;5.90;1.93;;;9.40;1.00;;;;;;5028942;28;20182;-71
2022/11/21 08:47:20;;;;;;;6.50;2.17;;;9.50;1.00;;;;;;5025249;28;20190;-71
2022/11/21 08:49:46;;;;;;;6.53;1.70;;;9.50;1.00;;;;;;5017678;28;20194;-71
2022/11/21 08:52:12;;;;;;;3.27;1.80;;;9.40;1.00;;;;;;5025155;28;20189;-72
2022/11/21 08:54:38;;;;;;;7.60;2.47;;;9.40;1.00;;;;;;5029800;28;20475;-71
2022/11/21 08:57:03;;;;;;;6.33;1.97;;;9.50;1.00;;;;;;5030637;28;20807;-70
2022/11/21 08:59:29;;;;;;;6.13;1.90;;;10.70;1.00;;;;;;5031123;28;20189;-72
2022/11/21 09:01:54;;;;;;;3.90;1.80;;;10.80;1.00;;;;;;5024587;28;20288;-71
2022/11/21 09:04:20;;;;;;;3.97;1.67;;;12.10;1.00;;;;;;5018690;28;20198;-72
2022/11/21 09:06:45;;;;;;;5.93;1.83;;;12.90;1.00;;;;;;5032773;28;20170;-72
2022/11/21 09:09:11;;;;;;;5.40;2.10;;;14.10;1.00;;;;;;5030068;28;20181;-72
2022/11/21 09:11:37;;;;;;;4.00;1.77;;;15.20;1.00;;;;;;5032007;28;20224;-72
2022/11/21 09:19:31;;;;;;;4.27;1.97;;;20.20;1.00;;;;;;5030900;28;20427;-73
2022/11/21 09:21:56;;;;;;;6.33;2.07;;;20.30;1.00;;;;;;5031202;28;20854;-72
2022/11/21 09:24:22;;;;;;;5.20;1.97;;;20.70;1.00;;;;;;5024824;28;20167;-73
2022/11/21 09:26:47;;;;;;;5.80;2.20;;;20.70;1.00;;;;;;5022424;28;20209;-73
2022/11/21 09:29:14;;;;;;;4.60;2.47;;;;;;;;;;5028669;28;20257;-72
2022/11/21 09:31:43;;;;;;;7.67;2.17;;;19.70;1.00;;;;;;5027746;28;20257;-72
2022/11/21 09:34:09;;;;;;;6.13;2.20;;;20.40;1.00;;;;;;5025828;28;20962;-72
2022/11/21 09:36:35;;;;;;;5.60;2.10;;;21.20;1.00;;;;;;5020555;28;20440;-73
2022/11/21 09:39:00;;;;;;;5.23;2.23;;;21.50;1.00;;;;;;5027095;28;20436;-73
2022/11/21 09:41:53;;;;;;;6.53;1.97;;;21.60;1.00;;;;;;5019851;28;20224;-73
2022/11/21 09:44:40;;;;;;;5.57;2.07;;;21.00;1.00;;;;;;5013018;28;20269;-72
2022/11/21 09:47:26;;;;;;;6.57;2.23;;;21.30;1.00;;;;;;5028207;28;20421;-73
2022/11/21 09:50:10;;;;;;;5.23;2.10;;;21.50;1.00;;;;;;5018752;28;21745;-73
2022/11/21 09:52:36;;;;;;;4.47;2.33;;;20.60;1.00;;;;;;5014826;28;20445;-71
2022/11/21 09:55:06;;;;;;;6.57;2.40;;;21.20;1.00;;;;;;5021581;28;20938;-72
2022/11/21 09:57:34;;;;;;;6.70;2.40;;;22.10;1.00;;;;;;5026815;28;20181;-71
2022/11/21 10:00:03;;;;;;;5.17;2.43;;;22.90;1.00;;;;;;5029265;28;20474;-72
2022/11/21 10:02:28;;;;;;;5.23;2.37;;;23.00;1.00;;;;;;5020156;28;20986;-73
2022/11/21 10:04:59;;;;;;;8.10;2.13;;;23.30;1.00;;;;;;5024036;28;20439;-73
2022/11/21 10:07:29;;;;;;;5.40;2.00;;;22.50;1.00;;;;;;5030432;28;20542;-73
2022/11/21 10:10:16;;;;;;;4.70;2.27;;;22.20;1.00;;;;;;5023226;28;21503;-73
2022/11/21 10:12:59;;;;;;;6.93;2.40;;;22.50;1.00;;;;;;5030246;28;20450;-72
2022/11/21 10:15:54;;;;;;;4.07;1.73;;;22.60;1.00;;;;;;5028459;28;20448;-73
2022/11/21 10:18:48;;;;;;;4.90;2.20;;;22.80;1.00;;;;;;5015610;28;20432;-73
2022/11/21 10:21:36;;;;;;;7.40;2.30;;;21.20;1.00;;;;;;5019257;28;20885;-72
2022/11/21 10:24:35;;;;;;;6.07;2.43;;;21.10;1.00;;;;;;5021957;28;20436;-72
2022/11/21 10:27:16;;;;;;;10.20;2.37;;;23.10;1.00;;;;;;5020817;28;20488;-73
2022/11/21 10:29:49;;;;;;;5.23;2.40;;;24.20;1.00;;;;;;5030376;28;20464;-72
2022/11/21 10:32:25;;;;;;;8.87;2.47;;;25.00;1.00;;;;;;5025821;28;20463;-73
2022/11/21 10:34:57;;;;;;;7.20;2.60;;;24.40;1.00;;;;;;5025646;28;20435;-72
2022/11/21 10:37:52;;;;;;;5.03;1.93;;;24.50;1.00;;;;;;5027304;28;20432;-73
2022/11/21 10:40:36;;;;;;;6.00;2.57;;;25.60;1.00;;;;;;5020856;28;20460;-73
2022/11/21 10:46:12;;;;;;;9.77;2.37;;;22.70;1.00;;;;;;5024962;28;20546;-72
2022/11/21 10:48:37;;;;;;;6.53;2.87;;;21.30;1.00;;;;;;5024347;28;20441;-73
2022/11/21 10:51:12;;;;;;;6.20;2.30;;;19.90;1.00;;;;;;5024133;28;20193;-72
2022/11/21 10:56:25;;;;;;;5.00;2.20;;;21.20;1.00;;;;;;5027381;28;20551;-72
2022/11/21 10:58:56;;;;;;;7.97;2.37;;;22.10;1.00;;;;;;5027930;28;20507;-71
2022/11/21 11:01:32;;;;;;;6.70;2.27;;;21.50;1.00;;;;;;5020650;28;21028;-72
2022/11/21 11:04:10;;;;;;;8.10;2.23;;;21.40;1.00;;;;;;5027014;28;20511;-72
2022/11/21 11:06:40;;;;;;;4.50;1.90;;;21.70;1.00;;;;;;5028007;28;20423;-73
2022/11/21 11:09:06;;;;;;;6.00;2.47;;;22.10;1.00;;;;;;5027227;28;20432;-72
2022/11/21 11:11:32;;;;;;;7.97;3.00;;;22.40;1.00;;;;;;5029988;28;20980;-72
2022/11/21 11:14:12;;;;;;;6.43;2.87;;;20.70;1.00;;;;;;5029070;28;20277;-72
2022/11/21 11:16:44;;;;;;;8.83;2.50;;;18.60;1.00;;;;;;5030063;28;20411;-71
2022/11/21 11:19:12;;;;;;;8.10;2.37;;;17.00;1.00;;;;;;5023771;28;20436;-70
2022/11/21 11:21:41;;;;;;;5.00;2.30;;;16.00;1.00;;;;;;5022653;28;20967;-71
2022/11/21 11:24:09;;;;;;;4.03;2.13;;;15.40;1.00;;;;;;5027974;28;20432;-69
2022/11/21 11:26:49;;;;;;;9.60;2.70;;;14.90;1.00;;;;;;5023843;28;20547;-71
2022/11/21 11:29:18;;;;;;;4.83;2.23;;;14.70;1.00;;;;;;5017413;28;20436;-70
2022/11/21 11:32:13;;;;;;;5.27;1.80;;;14.70;1.00;;;;;;5023702;28;20947;-71
2022/11/21 11:35:01;;;;;;;7.57;2.10;;;14.10;1.00;;;;;;5025024;28;20977;-71
2022/11/21 11:37:39;;;;;;;5.23;1.70;;;14.00;1.00;;;;;;5021300;28;20534;-71
2022/11/21 11:40:25;;;;;;;4.80;2.20;;;14.70;1.00;;;;;;5024665;28;20470;-72
2022/11/21 11:48:44;;;;;;;8.20;2.00;;;17.50;1.00;;;;;;5025259;28;20730;-72
2022/11/21 11:51:38;;;;;;;7.83;2.50;;;20.10;1.00;;;;;;5023490;28;20437;-71
2022/11/21 11:54:18;;;;;;;7.17;2.50;;;21.00;1.00;;;;;;5015273;28;20441;-72
2022/11/21 11:56:45;;;;;;;6.80;2.70;;;20.00;1.00;;;;;;5022007;28;20448;-72
2022/11/21 11:59:17;;;;;;;7.57;2.43;;;20.40;1.00;;;;;;5019316;28;20468;-72
2022/11/21 12:01:46;;;;;;;4.20;2.30;;;21.30;1.00;;;;;;5025527;28;20978;-71
2022/11/21 12:04:20;;;;;;;5.93;2.30;;;22.70;1.00;;;;;;5020468;28;21017;-72
2022/11/21 12:07:07;;;;;;;9.43;2.67;;;23.70;1.00;;;;;;5026871;28;20424;-71
2022/11/21 12:09:53;;;;;;;8.33;2.90;;;23.40;1.00;;;;;;5014815;28;20428;-72
2022/11/21 12:12:34;;;;;;;7.20;2.43;;;22.90;1.00;;;;;;5027537;28;20510;-72
2022/11/21 12:18:18;;;;;;;5.90;2.30;;;18.50;1.00;;;;;;5015784;28;20523;-72
2022/11/21 12:20:56;;;;;;;8.37;2.83;;;18.80;1.00;;;;;;5031247;28;20486;-72
2022/11/21 12:23:29;;;;;;;7.53;2.30;;;20.10;1.00;;;;;;5028162;28;20509;-71
2022/11/21 12:26:32;;;;;;;9.33;2.37;;;20.00;1.00;;;;;;5031005;28;20515;-71
2022/11/21 12:29:12;;;;;;;8.87;2.30;;;19.80;1.00;;;;;;5032029;28;20466;-71
2022/11/21 12:31:53;;;;;;;6.53;2.50;;;19.50;1.00;;;;;;5028462;28;20459;-72
2022/11/21 12:34:40;;;;;;;10.80;2.90;;;18.50;1.00;;;;;;5023645;28;20475;-70
2022/11/21 12:37:36;;;;;;;6.63;2.47;;;17.60;1.00;;;;;;5023697;28;20404;-72
2022/11/21 12:40:39;;;;;;;6.03;2.40;;;18.30;1.00;;;;;;5029350;28;20486;-72
2022/11/21 12:43:37;;;;;;;9.00;2.47;;;20.00;1.00;;;;;;5013288;28;20468;-71
2022/11/21 12:46:14;;;;;;;9.10;2.63;;;20.70;1.00;;;;;;5024646;28;20409;-71
2022/11/21 12:55:02;;;;;;;11.37;2.80;;;18.90;1.00;;;;;;5028898;28;20470;-73
2022/11/21 12:57:43;;;;;;;8.93;3.60;;;17.70;1.00;;;;;;5032551;28;20508;-72
2022/11/21 13:00:31;;;;;;;7.70;3.00;;;17.10;1.00;;;;;;5019976;28;20879;-72
2022/11/21 13:03:24;;;;;;;9.90;2.90;;;16.20;1.00;;;;;;5028759;28;20498;-72
2022/11/21 13:05:51;;;;;;;6.27;2.90;;;15.70;1.00;;;;;;5029829;28;20432;-71
2022/11/21 13:08:25;;;;;;;11.90;2.27;;;15.30;1.00;;;;;;5030518;28;20810;-72
2022/11/21 13:14:40;;;;;;;5.27;2.03;;;13.60;1.00;;;;;;5029171;28;20439;-71
2022/11/21 13:17:08;;;;;;;8.43;3.13;;;13.10;1.00;;;;;;5025298;28;20433;-71
2022/11/21 13:19:54;;;;;;;11.07;2.70;;;13.30;1.00;;;;;;5028521;28;20433;-71
2022/11/21 13:22:35;;;;;;;5.80;1.90;;;13.30;1.00;;;;;;5025405;28;20456;-72
2022/11/21 13:25:12;;;;;;;10.03;2.13;;;13.60;1.00;;;;;;5023070;28;21042;-71
2022/11/21 13:27:39;;;;;;;11.07;2.30;;;13.50;1.00;;;;;;5031007;28;20404;-71
2022/11/21 13:30:11;;;;;;;7.10;2.00;;;13.70;1.00;;;;;;5026062;28;20460;-70
2022/11/21 13:32:44;;;;;;;9.57;2.00;;;13.60;1.00;;;;;;5026291;28;20926;-70
2022/11/21 13:35:18;;;;;;;7.57;2.30;;;13.60;1.00;;;;;;5026840;28;20471;-71
2022/11/21 13:38:03;;;;;;;7.90;2.27;;;13.60;1.00;;;;;;5025601;28;20559;-71
2022/11/21 13:40:29;;;;;;;8.20;2.00;;;13.60;1.00;;;;;;5026310;28;20791;-71
2022/11/21 13:43:18;;;;;;;8.07;2.40;;;13.30;1.00;;;;;;5020047;28;20967;-71
2022/11/21 13:45:48;;;;;;;8.40;2.33;;;13.10;1.00;;;;;;5023205;28;20209;-71